Time;durP1;ratioP1;P1;durP2;ratioP2;P2;SDS_P1;SDS_P2;PMS_P1;PMS_P2;Temp;Humidity;BMP_temperature;BMP_pressure;BME280_temperature;BME280_humidity;BME280_pressure;Samples;Min_cycle;Max_cycle;Signal;HPM_P1;HPM_P2
2023/04/24 00:02:22;;;;;;;;;;;;;;;13.85;100.00;98780.16;5063751;28;19921;-82
2023/04/24 00:04:51;;;;;;;;;;;;;;;13.77;100.00;98774.13;5092898;22;20395;-81
2023/04/24 00:07:20;;;;;;;;;;;;;;;13.65;100.00;98773.75;5079294;28;19920;-81
2023/04/24 00:09:45;;;;;;;;;;;;;;;13.69;100.00;98772.38;5081601;28;19925;-82
2023/04/24 00:12:10;;;;;;;;;;;;;;;13.69;100.00;98761.78;5081670;28;19924;-82
2023/04/24 00:14:37;;;;;;;;;;;;;;;13.65;100.00;98765.00;5080705;28;19929;-81
2023/04/24 00:17:02;;;;;;;;;;;;;;;13.66;100.00;98762.16;5083198;28;19920;-82
2023/04/24 00:19:28;;;;;;;;;;;;;;;13.64;100.00;98769.47;5079351;28;19928;-81
2023/04/24 00:21:54;;;;;;;;;;;;;;;13.47;100.00;98774.09;5083180;28;19920;-82
2023/04/24 00:24:20;;;;;;;;;;;;;;;13.35;100.00;98775.53;5080894;28;19952;-81
2023/04/24 00:26:45;;;;;;;;;;;;;;;13.18;100.00;98779.31;5081905;28;19921;-82
2023/04/24 00:29:10;;;;;;;;;;;;;;;13.02;100.00;98790.00;5083412;28;19960;-83
2023/04/24 00:31:36;;;;;;;;;;;;;;;12.98;100.00;98778.94;5064079;28;20348;-82
2023/04/24 00:34:02;;;;;;;;;;;;;;;12.97;100.00;98781.75;5079844;28;20288;-82
2023/04/24 00:36:27;;;;;;;;;;;;;;;12.97;100.00;98784.41;5082938;28;19940;-82
2023/04/24 00:38:53;;;;;;;;;;;;;;;12.90;100.00;98796.72;5082278;28;20442;-81
2023/04/24 00:41:18;;;;;;;;;;;;;;;12.80;100.00;98788.16;5069668;28;19949;-81
2023/04/24 00:43:44;;;;;;;;;;;;;;;12.84;100.00;98786.84;5086822;28;19921;-81
2023/04/24 00:46:10;;;;;;;;;;;;;;;12.92;100.00;98792.06;5081806;28;19920;-82
2023/04/24 00:48:38;;;;;;;;;;;;;;;12.89;100.00;98789.78;5061877;28;19920;-82
2023/04/24 00:51:03;;;;;;;;;;;;;;;12.90;100.00;98786.13;5081367;28;20296;-81
2023/04/24 00:53:29;;;;;;;;;;;;;;;12.95;100.00;98775.84;5061070;28;19927;-81
2023/04/24 00:55:55;;;;;;;;;;;;;;;13.01;100.00;98769.84;5070474;28;19928;-85
2023/04/24 00:58:20;;;;;;;;;;;;;;;13.05;100.00;98763.16;5081153;28;19928;-84
2023/04/24 01:00:47;;;;;;;;;;;;;;;12.97;100.00;98760.56;5064553;28;19928;-83
2023/04/24 01:03:13;;;;;;;;;;;;;;;12.94;100.00;98766.25;5080713;28;19924;-87
2023/04/24 01:05:38;;;;;;;;;;;;;;;12.82;100.00;98762.34;5048190;28;19920;-83
2023/04/24 01:08:04;;;;;;;;;;;;;;;12.77;100.00;98762.06;5060880;28;20368;-81
2023/04/24 01:10:31;;;;;;;;;;;;;;;12.72;100.00;98767.88;5042955;28;19925;-82
2023/04/24 01:12:57;;;;;;;;;;;;;;;12.63;100.00;98764.47;5050719;28;19944;-81
2023/04/24 01:15:23;;;;;;;;;;;;;;;12.47;100.00;98759.25;5041829;28;19916;-83
2023/04/24 01:17:49;;;;;;;;;;;;;;;12.40;100.00;98757.47;5043971;28;19989;-82
2023/04/24 01:20:15;;;;;;;;;;;;;;;12.33;100.00;98752.06;5042369;28;19917;-81
2023/04/24 01:22:41;;;;;;;;;;;;;;;12.34;100.00;98753.72;5042595;28;19928;-82
2023/04/24 01:25:07;;;;;;;;;;;;;;;12.27;100.00;98755.38;5060063;28;19994;-80
2023/04/24 01:27:32;;;;;;;;;;;;;;;12.18;100.00;98749.31;5058637;28;19920;-81
2023/04/24 01:29:57;;;;;;;;;;;;;;;12.14;100.00;98747.19;5044519;28;19966;-81
2023/04/24 01:32:23;;;;;;;;;;;;;;;12.01;100.00;98752.22;5041341;28;19967;-80
2023/04/24 01:34:50;;;;;;;;;;;;;;;11.99;100.00;98738.34;5060794;28;19925;-80
2023/04/24 01:37:16;;;;;;;;;;;;;;;12.01;100.00;98742.47;5041432;28;19921;-80
2023/04/24 01:39:42;;;;;;;;;;;;;;;12.01;100.00;98741.63;5041430;28;19922;-80
2023/04/24 01:42:08;;;;;;;;;;;;;;;11.93;100.00;98736.38;5042772;28;19928;-80
2023/04/24 01:44:33;;;;;;;;;;;;;;;11.98;100.00;98734.03;5040591;28;20392;-82
2023/04/24 01:47:00;;;;;;;;;;;;;;;11.81;100.00;98739.38;5062255;28;20373;-82
2023/04/24 01:49:26;;;;;;;;;;;;;;;11.72;100.00;98744.84;5040109;28;19921;-82
2023/04/24 01:51:51;;;;;;;;;;;;;;;11.78;100.00;98747.63;5026938;28;19970;-82
2023/04/24 01:54:16;;;;;;;;;;;;;;;11.88;100.00;98743.00;5041751;28;19966;-81
2023/04/24 01:56:42;;;;;;;;;;;;;;;11.95;100.00;98734.38;5059694;28;19971;-80
2023/04/24 01:59:09;;;;;;;;;;;;;;;12.00;100.00;98726.75;5042721;28;20388;-80
2023/04/24 02:01:37;;;;;;;;;;;;;;;12.06;100.00;98723.44;5058219;28;19928;-80
2023/04/24 02:04:04;;;;;;;;;;;;;;;12.15;100.00;98719.75;5070947;28;20455;-81
2023/04/24 02:06:31;;;;;;;;;;;;;;;12.17;100.00;98720.41;5077999;28;19924;-81
2023/04/24 02:08:56;;;;;;;;;;;;;;;12.06;100.00;98718.16;5060793;28;19920;-81
2023/04/24 02:11:22;;;;;;;;;;;;;;;12.16;100.00;98718.75;5063041;28;19927;-81
2023/04/24 02:13:47;;;;;;;;;;;;;;;12.12;100.00;98728.84;5062398;28;19920;-81
2023/04/24 02:16:13;;;;;;;;;;;;;;;12.12;100.00;98733.31;5064066;28;20288;-80
2023/04/24 02:18:38;;;;;;;;;;;;;;;12.11;100.00;98729.84;5082584;28;20007;-82
2023/04/24 02:21:03;;;;;;;;;;;;;;;11.94;100.00;98741.50;5067033;28;20322;-81
2023/04/24 02:23:29;;;;;;;;;;;;;;;11.88;100.00;98743.00;5063527;28;19974;-78
2023/04/24 02:25:54;;;;;;;;;;;;;;;11.73;100.00;98744.69;5067210;28;19966;-79
2023/04/24 02:28:19;;;;;;;;;;;;;;;11.82;100.00;98738.41;5082611;28;19924;-79
2023/04/24 02:30:45;;;;;;;;;;;;;;;11.86;100.00;98744.97;5081532;28;19924;-79
2023/04/24 02:33:11;;;;;;;;;;;;;;;11.70;100.00;98739.72;5065209;28;20319;-80
2023/04/24 02:35:36;;;;;;;;;;;;;;;11.42;100.00;98746.41;5084001;28;19927;-79
2023/04/24 02:38:02;;;;;;;;;;;;;;;11.43;100.00;98742.75;5082139;28;20391;-80
2023/04/24 02:40:28;;;;;;;;;;;;;;;11.22;100.00;98745.09;5083054;28;19920;-80
2023/04/24 02:42:53;;;;;;;;;;;;;;;11.34;100.00;98734.00;5084439;28;19920;-80
2023/04/24 02:45:19;;;;;;;;;;;;;;;11.47;100.00;98733.50;5064320;28;19977;-78
2023/04/24 02:47:44;;;;;;;;;;;;;;;11.46;100.00;98735.31;5064982;28;20013;-78
2023/04/24 02:50:10;;;;;;;;;;;;;;;11.52;100.00;98741.75;5083539;28;19920;-79
2023/04/24 02:52:35;;;;;;;;;;;;;;;11.54;100.00;98731.84;5063752;28;19931;-79
2023/04/24 02:55:00;;;;;;;;;;;;;;;11.54;100.00;98742.41;5085072;28;19952;-80
2023/04/24 02:57:26;;;;;;;;;;;;;;;11.33;100.00;98731.53;5081111;28;19920;-80
2023/04/24 02:59:51;;;;;;;;;;;;;;;11.15;100.00;98729.06;5084038;28;20366;-80
2023/04/24 03:02:16;;;;;;;;;;;;;;;11.17;100.00;98732.38;5064320;28;20402;-80
2023/04/24 03:04:42;;;;;;;;;;;;;;;11.24;100.00;98719.34;5063827;28;19925;-79
2023/04/24 03:07:08;;;;;;;;;;;;;;;11.19;100.00;98724.31;5075508;28;19966;-80
2023/04/24 03:09:33;;;;;;;;;;;;;;;11.03;100.00;98728.59;5081871;28;19970;-80
2023/04/24 03:11:58;;;;;;;;;;;;;;;11.00;100.00;98726.28;5081272;28;19920;-80
2023/04/24 03:14:24;;;;;;;;;;;;;;;11.04;100.00;98732.88;5081354;28;19924;-81
2023/04/24 03:16:50;;;;;;;;;;;;;;;11.06;100.00;98730.91;5083788;28;20330;-82
2023/04/24 03:19:15;;;;;;;;;;;;;;;11.01;100.00;98733.22;5064125;28;19920;-80
2023/04/24 03:21:52;;;;;;;;;;;;;;;11.17;100.00;98731.56;5065410;28;19920;-81
2023/04/24 03:24:18;;;;;;;;;;;;;;;11.18;100.00;98733.22;5066180;28;20407;-79
2023/04/24 03:26:44;;;;;;;;;;;;;;;11.20;100.00;98734.69;5061776;28;19927;-80
2023/04/24 03:29:35;;;;;;;;;;;;;;;11.16;100.00;98729.91;5057469;28;20471;-80
2023/04/24 03:32:01;;;;;;;;;;;;;;;11.16;100.00;98719.34;5084382;28;20022;-78
2023/04/24 03:34:27;;;;;;;;;;;;;;;11.20;100.00;98710.09;5062235;28;19928;-78
2023/04/24 03:36:56;;;;;;;;;;;;;;;11.20;100.00;98710.91;5064639;28;19920;-79
2023/04/24 03:39:21;;;;;;;;;;;;;;;11.06;100.00;98693.94;5058361;28;20288;-78
2023/04/24 03:41:52;;;;;;;;;;;;;;;11.04;100.00;98703.03;5064925;28;20512;-78
2023/04/24 03:44:22;;;;;;;;;;;;;;;10.92;100.00;98702.53;5062563;28;20003;-81
2023/04/24 03:46:48;;;;;;;;;;;;;;;11.07;100.00;98710.63;5079030;28;20011;-81
2023/04/24 03:49:13;;;;;;;;;;;;;;;11.09;100.00;98714.72;5066400;28;19920;-82
2023/04/24 03:51:42;;;;;;;;;;;;;;;10.88;100.00;98711.78;5063313;28;20645;-80
2023/04/24 03:54:17;;;;;;;;;;;;;;;10.73;100.00;98716.03;5064498;28;19974;-78
2023/04/24 03:56:43;;;;;;;;;;;;;;;10.69;100.00;98722.66;5049254;28;19928;-81
2023/04/24 03:59:09;;;;;;;;;;;;;;;10.67;100.00;98724.59;5077412;28;19943;-80
2023/04/24 04:01:39;;;;;;;;;;;;;;;10.47;100.00;98728.56;5061211;28;19920;-80
2023/04/24 04:04:10;;;;;;;;;;;;;;;10.33;100.00;98726.53;5063674;28;19920;-79
2023/04/24 04:06:37;;;;;;;;;;;;;;;10.18;100.00;98735.09;5059535;28;19958;-79
2023/04/24 04:09:04;;;;;;;;;;;;;;;10.06;100.00;98735.50;5064357;28;19966;-79
2023/04/24 04:11:30;;;;;;;;;;;;;;;9.93;100.00;98730.66;5076988;28;20357;-81
2023/04/24 04:13:56;;;;;;;;;;;;;;;10.01;100.00;98733.34;5063919;28;19927;-82
2023/04/24 04:16:22;;;;;;;;;;;;;;;10.06;100.00;98736.31;5064383;28;20450;-79
2023/04/24 04:18:50;;;;;;;;;;;;;;;10.04;100.00;98727.75;5065107;28;19924;-79
2023/04/24 04:21:15;;;;;;;;;;;;;;;10.13;100.00;98739.94;5070145;28;19927;-80
2023/04/24 04:23:41;;;;;;;;;;;;;;;10.11;100.00;98747.22;5062428;28;19924;-79
2023/04/24 04:26:19;;;;;;;;;;;;;;;10.08;100.00;98750.16;5062392;28;19928;-80
2023/04/24 04:29:04;;;;;;;;;;;;;;;9.94;100.00;98752.56;5059017;28;20003;-80
2023/04/24 04:31:31;;;;;;;;;;;;;;;9.90;100.00;98754.69;5063797;28;19931;-79
2023/04/24 04:34:01;;;;;;;;;;;;;;;9.82;100.00;98754.66;5064583;28;19927;-78
2023/04/24 04:36:29;;;;;;;;;;;;;;;9.74;100.00;98754.63;5058111;28;19920;-77
2023/04/24 04:39:02;;;;;;;;;;;;;;;9.79;100.00;98753.16;5058926;28;20347;-79
2023/04/24 04:41:50;;;;;;;;;;;;;;;9.81;100.00;98758.28;5063199;28;19920;-80
2023/04/24 04:44:17;;;;;;;;;;;;;;;9.79;100.00;98760.22;5074353;28;20037;-79
2023/04/24 04:46:44;;;;;;;;;;;;;;;9.90;100.00;98769.66;5060347;28;19916;-81
2023/04/24 04:49:21;;;;;;;;;;;;;;;9.91;100.00;98764.25;5048534;28;19928;-81
2023/04/24 04:51:48;;;;;;;;;;;;;;;9.58;100.00;98765.06;5045809;28;19973;-80
2023/04/24 04:54:14;;;;;;;;;;;;;;;9.58;100.00;98762.44;5080589;28;20001;-79
2023/04/24 04:56:39;;;;;;;;;;;;;;;9.57;100.00;98766.03;5062807;28;20356;-78
2023/04/24 04:59:06;;;;;;;;;;;;;;;9.68;100.00;98771.88;5061135;28;20376;-80
2023/04/24 05:01:33;;;;;;;;;;;;;;;9.74;100.00;98770.41;5062246;28;19958;-81
2023/04/24 05:03:59;;;;;;;;;;;;;;;9.79;100.00;98774.22;5062651;28;19920;-79
2023/04/24 05:06:25;;;;;;;;;;;;;;;9.72;100.00;98775.03;5060727;28;20010;-79
2023/04/24 05:08:55;;;;;;;;;;;;;;;9.67;100.00;98769.38;5064432;28;19920;-80
2023/04/24 05:11:46;;;;;;;;;;;;;;;9.61;100.00;98777.91;5064429;28;19963;-80
2023/04/24 05:14:12;;;;;;;;;;;;;;;9.53;100.00;98776.06;5062366;28;19955;-79
2023/04/24 05:16:39;;;;;;;;;;;;;;;9.59;100.00;98780.72;5077050;28;20007;-79
2023/04/24 05:19:06;;;;;;;;;;;;;;;9.73;100.00;98776.66;5062277;28;20002;-80
2023/04/24 05:21:35;;;;;;;;;;;;;;;9.89;100.00;98781.22;5062013;28;19921;-81
2023/04/24 05:24:01;;;;;;;;;;;;;;;9.92;100.00;98773.81;5060947;28;19958;-80
2023/04/24 05:26:45;;;;;;;;;;;;;;;10.07;100.00;98781.97;5080521;28;20425;-82
2023/04/24 05:29:13;;;;;;;;;;;;;;;10.17;100.00;98770.34;5082808;28;20413;-80
2023/04/24 05:31:38;;;;;;;;;;;;;;;10.13;100.00;98768.94;5079707;28;19920;-80
2023/04/24 05:34:05;;;;;;;;;;;;;;;10.17;100.00;98778.25;5062283;28;19977;-78
2023/04/24 05:36:30;;;;;;;;;;;;;;;10.17;100.00;98780.88;5080477;28;19923;-79
2023/04/24 05:38:57;;;;;;;;;;;;;;;10.17;100.00;98786.16;5058708;28;19966;-80
2023/04/24 05:41:22;;;;;;;;;;;;;;;10.19;100.00;98794.72;5060833;28;19920;-80
2023/04/24 05:43:48;;;;;;;;;;;;;;;10.13;100.00;98795.31;5075675;28;20011;-81
2023/04/24 05:46:13;;;;;;;;;;;;;;;10.13;100.00;98795.31;5063285;28;19927;-80
2023/04/24 05:48:38;;;;;;;;;;;;;;;10.27;100.00;98807.94;5064273;28;19927;-81
2023/04/24 05:51:04;;;;;;;;;;;;;;;10.40;100.00;98806.66;5062979;28;20352;-80
2023/04/24 05:53:30;;;;;;;;;;;;;;;10.54;100.00;98803.44;5064839;28;19920;-80
2023/04/24 05:55:55;;;;;;;;;;;;;;;10.62;100.00;98813.97;5065333;28;19928;-79
2023/04/24 05:58:20;;;;;;;;;;;;;;;10.63;100.00;98818.28;5065377;28;20387;-78
2023/04/24 06:00:46;;;;;;;;;;;;;;;10.70;100.00;98819.28;5064190;28;19920;-80
2023/04/24 06:03:12;;;;;;;;;;;;;;;10.64;100.00;98819.94;5064299;28;19921;-80
2023/04/24 06:05:37;;;;;;;;;;;;;;;10.61;100.00;98821.06;5065367;28;19920;-84
2023/04/24 06:08:03;;;;;;;;;;;;;;;10.68;100.00;98821.25;5066205;28;20016;-82
2023/04/24 06:10:33;;;;;;;;;;;;;;;10.85;100.00;98814.19;5063422;28;20137;-82
2023/04/24 06:13:01;;;;;;;;;;;;;;;10.94;100.00;98805.31;5065145;28;19972;-81
2023/04/24 06:15:33;;;;;;;;;;;;;;;11.08;100.00;98805.47;5081014;28;19920;-82
2023/04/24 06:18:06;;;;;;;;;;;;;;;11.15;100.00;98808.28;5063233;28;19920;-79
2023/04/24 06:20:32;;;;;;;;;;;;;;;11.22;100.00;98808.47;5083978;28;20384;-81
2023/04/24 06:22:57;;;;;;;;;;;;;;;11.28;100.00;98808.63;5064648;28;19921;-79
2023/04/24 06:25:25;;;;;;;;;;;;;;;11.32;100.00;98803.84;5061193;28;19921;-77
2023/04/24 06:27:50;;;;;;;;;;;;;;;11.48;100.00;98809.13;5064080;28;19935;-79
2023/04/24 06:30:16;;;;;;;;;;;;;;;11.46;100.00;98816.38;5064237;28;19924;-79
2023/04/24 06:32:41;;;;;;;;;;;;;;;11.50;100.00;98815.88;5086533;28;19969;-80
2023/04/24 06:35:07;;;;;;;;;;;;;;;11.58;100.00;98814.22;5082745;28;19924;-78
2023/04/24 06:37:33;;;;;;;;;;;;;;;11.61;100.00;98819.16;5066670;28;20360;-79
2023/04/24 06:39:58;;;;;;;;;;;;;;;11.62;100.00;98821.66;5084308;28;19974;-80
2023/04/24 06:42:24;;;;;;;;;;;;;;;11.64;100.00;98819.69;5067270;28;19920;-80
2023/04/24 06:44:49;;;;;;;;;;;;;;;11.65;100.00;98816.03;5083463;28;19925;-80
2023/04/24 06:47:15;;;;;;;;;;;;;;;11.80;100.00;98824.13;5084486;28;19990;-80
2023/04/24 06:49:40;;;;;;;;;;;;;;;11.84;100.00;98823.63;5082817;28;19931;-81
2023/04/24 06:52:06;;;;;;;;;;;;;;;11.86;100.00;98819.00;5083771;28;19920;-79
2023/04/24 06:54:32;;;;;;;;;;;;;;;11.79;100.00;98828.59;5076928;28;20338;-78
2023/04/24 06:56:57;;;;;;;;;;;;;;;11.89;100.00;98831.91;5062492;28;20299;-79
2023/04/24 06:59:23;;;;;;;;;;;;;;;12.04;100.00;98823.25;5078626;28;19973;-77
2023/04/24 07:01:49;;;;;;;;;;;;;;;12.07;100.00;98817.63;5062965;28;19920;-78
2023/04/24 07:04:16;;;;;;;;;;;;;;;12.21;100.00;98822.19;5081876;28;19920;-82
2023/04/24 07:06:41;;;;;;;;;;;;;;;12.25;100.00;98815.59;5079604;28;19924;-78
2023/04/24 07:09:08;;;;;;;;;;;;;;;12.41;100.00;98810.22;5073984;28;19927;-77
2023/04/24 07:11:36;;;;;;;;;;;;;;;12.53;100.00;98808.84;5075326;28;19925;-78
2023/04/24 07:14:03;;;;;;;;;;;;;;;12.57;100.00;98806.66;5080071;28;20027;-77
2023/04/24 07:16:28;;;;;;;;;;;;;;;12.80;100.00;98809.34;5078273;28;19920;-78
2023/04/24 07:18:53;;;;;;;;;;;;;;;12.98;100.00;98810.72;5083288;28;20257;-79
2023/04/24 07:21:19;;;;;;;;;;;;;;;13.08;100.00;98815.78;5079173;28;20287;-79
2023/04/24 07:23:44;;;;;;;;;;;;;;;13.09;100.00;98817.44;5082873;28;19932;-76
2023/04/24 07:26:10;;;;;;;;;;;;;;;13.23;100.00;98824.66;5069944;28;19928;-79
2023/04/24 07:28:36;;;;;;;;;;;;;;;13.28;100.00;98832.88;5081656;28;20000;-79
2023/04/24 07:31:01;;;;;;;;;;;;;;;13.33;100.00;98841.13;5076927;28;19920;-77
2023/04/24 07:33:26;;;;;;;;;;;;;;;13.25;100.00;98838.56;5084534;28;20368;-76
2023/04/24 07:35:52;;;;;;;;;;;;;;;13.25;100.00;98848.31;5075728;28;20551;-75
2023/04/24 07:38:20;;;;;;;;;;;;;;;13.21;100.00;98842.53;5075492;28;19924;-76
2023/04/24 07:40:46;;;;;;;;;;;;;;;13.21;100.00;98847.00;5074521;28;19976;-75
2023/04/24 07:43:11;;;;;;;;;;;;;;;13.40;100.00;98842.06;5074538;28;19995;-75
2023/04/24 07:45:37;;;;;;;;;;;;;;;13.64;100.00;98834.91;5060310;28;19920;-76
2023/04/24 07:48:03;;;;;;;;;;;;;;;13.61;100.00;98836.09;5082681;28;19920;-74
2023/04/24 07:50:28;;;;;;;;;;;;;;;13.45;100.00;98833.56;5077386;28;19927;-75
2023/04/24 07:52:54;;;;;;;;;;;;;;;13.43;100.00;98836.41;5082726;28;19927;-77
2023/04/24 07:55:20;;;;;;;;;;;;;;;13.30;100.00;98828.25;5078468;28;19989;-76
2023/04/24 07:57:45;;;;;;;;;;;;;;;13.41;100.00;98841.06;5085330;28;19924;-76
2023/04/24 08:00:11;;;;;;;;;;;;;;;13.51;100.00;98833.69;5072682;28;19952;-77
2023/04/24 08:02:39;;;;;;;;;;;;;;;13.62;100.00;98828.94;5072870;28;19932;-75
2023/04/24 08:05:04;;;;;;;;;;;;;;;13.74;100.00;98827.53;5060762;28;19924;-75
2023/04/24 08:07:30;;;;;;;;;;;;;;;13.84;100.00;98833.41;5070970;28;20296;-77
2023/04/24 08:09:55;;;;;;;;;;;;;;;14.01;100.00;98831.41;5078061;28;19920;-78
2023/04/24 08:12:21;;;;;;;;;;;;;;;13.94;100.00;98834.78;5079883;28;20016;-80
2023/04/24 08:14:46;;;;;;;;;;;;;;;14.06;100.00;98842.28;5079533;28;19920;-80
2023/04/24 08:17:11;;;;;;;;;;;;;;;14.09;100.00;98841.91;5075648;28;20616;-80
2023/04/24 08:19:37;;;;;;;;;;;;;;;14.22;100.00;98842.09;5080595;28;20407;-83
2023/04/24 08:22:03;;;;;;;;;;;;;;;14.31;100.00;98841.81;5076953;28;19949;-76
2023/04/24 08:24:29;;;;;;;;;;;;;;;14.40;100.00;98847.06;5076920;28;20440;-76
2023/04/24 08:26:56;;;;;;;;;;;;;;;14.25;100.00;98844.41;5077082;28;19920;-79
2023/04/24 08:29:22;;;;;;;;;;;;;;;14.34;100.00;98846.78;5084106;28;19928;-87
2023/04/24 08:31:47;;;;;;;;;;;;;;;14.43;100.00;98849.38;5077001;28;20037;-84
2023/04/24 08:34:12;;;;;;;;;;;;;;;14.56;100.00;98850.34;5082389;28;19916;-89
2023/04/24 08:36:41;;;;;;;;;;;;;;;14.68;100.00;98845.38;5064565;28;19939;-90
2023/04/24 08:39:06;;;;;;;;;;;;;;;14.81;100.00;98850.84;5077889;28;19916;-89
2023/04/24 08:41:33;;;;;;;;;;;;;;;14.86;100.00;98850.28;5075870;28;20341;-87
2023/04/24 08:43:59;;;;;;;;;;;;;;;14.96;100.00;98850.84;5082904;28;20046;-85
2023/04/24 08:46:26;;;;;;;;;;;;;;;15.08;100.00;98844.00;5064679;28;20348;-87
2023/04/24 08:48:52;;;;;;;;;;;;;;;15.20;100.00;98841.69;5073576;28;19929;-82
2023/04/24 08:51:21;;;;;;;;;;;;;;;15.30;100.00;98839.53;5083218;28;20265;-85
2023/04/24 08:53:46;;;;;;;;;;;;;;;15.35;100.00;98845.91;5093065;28;19924;-83
2023/04/24 08:56:12;;;;;;;;;;;;;;;15.42;100.00;98845.97;5089539;28;19921;-86
2023/04/24 08:58:41;;;;;;;;;;;;;;;15.55;100.00;98846.13;5059350;28;20371;-81
2023/04/24 09:01:07;;;;;;;;;;;;;;;15.59;100.00;98847.38;5081767;28;19921;-80
2023/04/24 09:03:33;;;;;;;;;;;;;;;15.68;100.00;98851.53;5079927;28;19950;-80
2023/04/24 09:06:00;;;;;;;;;;;;;;;15.64;100.00;98842.31;5059045;28;19920;-83
2023/04/24 09:08:25;;;;;;;;;;;;;;;15.70;100.00;98844.22;5060940;28;19928;-81
2023/04/24 09:10:51;;;;;;;;;;;;;;;15.78;100.00;98841.41;5060365;28;19924;-77
2023/04/24 09:13:18;;;;;;;;;;;;;;;15.83;100.00;98848.81;5061313;28;19987;-79
2023/04/24 09:15:45;;;;;;;;;;;;;;;15.91;100.00;98846.81;5059739;28;19925;-83
2023/04/24 09:18:10;;;;;;;;;;;;;;;16.01;100.00;98845.66;5062404;28;20011;-84
2023/04/24 09:20:55;;;;;;;;;;;;;;;16.03;100.00;98832.97;5039278;28;20363;-85
2023/04/24 09:23:21;;;;;;;;;;;;;;;16.16;100.00;98830.38;5061923;28;19935;-83
2023/04/24 09:25:53;;;;;;;;;;;;;;;16.26;100.00;98838.84;5059447;28;19969;-86
2023/04/24 09:28:19;;;;;;;;;;;;;;;16.36;100.00;98839.31;5063431;28;19933;-84
2023/04/24 09:30:44;;;;;;;;;;;;;;;16.45;100.00;98847.94;5059672;28;19928;-82
2023/04/24 09:33:10;;;;;;;;;;;;;;;16.52;100.00;98840.81;5055124;28;19920;-81
2023/04/24 09:35:36;;;;;;;;;;;;;;;16.57;100.00;98836.53;5056037;28;19939;-80
2023/04/24 09:38:01;;;;;;;;;;;;;;;16.63;100.00;98835.78;5051688;28;20369;-80
2023/04/24 09:40:27;;;;;;;;;;;;;;;16.66;100.00;98840.72;5058230;28;19954;-81
2023/04/24 09:42:54;;;;;;;;;;;;;;;16.76;100.00;98833.19;5060578;28;19928;-83
2023/04/24 09:45:20;;;;;;;;;;;;;;;16.84;100.00;98821.53;5059448;28;19993;-80
2023/04/24 09:47:45;;;;;;;;;;;;;;;16.88;100.00;98828.09;5061611;28;20035;-80
2023/04/24 09:50:11;;;;;;;;;;;;;;;16.99;100.00;98824.84;5058048;28;20062;-80
2023/04/24 09:52:41;;;;;;;;;;;;;;;17.09;100.00;98824.44;5061905;28;20392;-81
2023/04/24 09:55:16;;;;;;;;;;;;;;;17.20;100.00;98821.19;5058686;28;19928;-80
2023/04/24 09:57:52;;;;;;;;;;;;;;;17.27;100.00;98808.69;5060325;28;19928;-79
2023/04/24 10:00:37;;;;;;;;;;;;;;;17.34;100.00;98814.84;5036851;28;19924;-79
2023/04/24 10:03:04;;;;;;;;;;;;;;;17.39;100.00;98819.56;4705528;28;10000495;-78
2023/04/24 10:05:31;;;;;;;;;;;;;;;17.46;100.00;98823.88;5074981;28;19927;-80
2023/04/24 10:07:57;;;;;;;;;;;;;;;17.53;100.00;98832.72;5077899;28;19928;-79
2023/04/24 10:10:22;;;;;;;;;;;;;;;17.59;100.00;98818.56;5077999;28;20003;-78
2023/04/24 10:12:48;;;;;;;;;;;;;;;17.65;100.00;98813.47;5077878;28;19958;-79
2023/04/24 10:15:15;;;;;;;;;;;;;;;17.71;98.77;98815.31;4724258;28;10000127;-79
2023/04/24 10:17:40;;;;;;;;;;;;;;;17.78;95.71;98813.47;5081014;28;19924;-79
2023/04/24 10:20:06;;;;;;;;;;;;;;;17.83;96.70;98805.66;5068526;28;19946;-78
2023/04/24 10:22:32;;;;;;;;;;;;;;;17.86;93.72;98810.56;5078419;28;19924;-79
2023/04/24 10:24:58;;;;;;;;;;;;;;;17.91;94.12;98808.91;5079290;28;19932;-79
2023/04/24 10:27:25;;;;;;;;;;;;;;;17.97;95.38;98804.59;5080980;28;20095;-78
2023/04/24 10:29:52;;;;;;;;;;;;;;;18.05;94.70;98808.88;5079825;28;19924;-80
2023/04/24 10:32:19;;;;;;;;;;;;;;;18.05;94.07;98800.88;5080363;28;19921;-78
2023/04/24 10:34:45;;;;;;;;;;;;;;;18.05;90.77;98793.69;5080229;28;19923;-79
2023/04/24 10:37:10;;;;;;;;;;;;;;;18.09;92.03;98794.91;5080555;28;19926;-79
2023/04/24 10:39:37;;;;;;;;;;;;;;;18.15;91.89;98788.72;5066977;28;19966;-79
2023/04/24 10:42:13;;;;;;;;;;;;;;;18.18;91.67;98793.66;5082490;28;20011;-79
2023/04/24 10:44:39;;;;;;;;;;;;;;;18.18;88.51;98793.66;5078965;28;19966;-80
2023/04/24 10:47:05;;;;;;;;;;;;;;;18.20;86.49;98796.94;5085879;28;20364;-81
2023/04/24 10:49:31;;;;;;;;;;;;;;;18.24;88.00;98792.81;5081730;28;19928;-80
2023/04/24 10:52:01;;;;;;;;;;;;;;;18.30;88.34;98781.31;5084479;28;21315;-78
2023/04/24 10:54:28;;;;;;;;;;;;;;;18.36;82.75;98788.47;5081742;28;19927;-78
2023/04/24 10:57:13;;;;;;;;;;;;;;;18.38;82.02;98786.38;5085077;28;19920;-79
2023/04/24 10:59:38;;;;;;;;;;;;;;;18.44;81.36;98778.59;4724172;28;10000158;-76
2023/04/24 11:02:06;;;;;;;;;;;;;;;18.50;80.81;98780.38;5073942;28;19920;-79
2023/04/24 11:04:33;;;;;;;;;;;;;;;18.58;78.29;98774.84;5068987;28;19920;-77
2023/04/24 11:06:58;;;;;;;;;;;;;;;18.63;79.54;98770.50;5059702;28;19920;-78
2023/04/24 11:09:26;;;;;;;;;;;;;;;18.73;78.88;98770.06;5064424;28;19970;-77
2023/04/24 11:12:02;;;;;;;;;;;;;;;18.79;78.33;98769.19;5063294;28;20032;-78
2023/04/24 11:14:27;;;;;;;;;;;;;;;18.87;74.24;98770.78;5026846;28;19928;-79
2023/04/24 11:16:54;;;;;;;;;;;;;;;18.89;73.64;98766.88;5063123;28;19924;-78
2023/04/24 11:19:28;;;;;;;;;;;;;;;18.90;68.97;98755.16;5056396;28;19929;-77
2023/04/24 11:22:04;;;;;;;;;;;;;;;18.94;70.03;98755.53;5061579;28;19967;-79
2023/04/24 11:24:32;;;;;;;;;;;;;;;18.97;70.06;98750.56;5062389;28;20727;-78
2023/04/24 11:26:59;;;;;;;;;;;;;;;19.01;67.16;98751.78;5039886;28;19920;-77
2023/04/24 11:29:51;;;;;;;;;;;;;;;19.18;63.31;98739.50;5057352;28;19921;-76
2023/04/24 11:32:23;;;;;;;;;;;;;;;19.35;55.10;98747.00;5057906;28;19921;-76
2023/04/24 11:34:50;;;;;;;;;;;;;;;19.42;56.21;98734.38;5038513;28;19925;-76
2023/04/24 11:37:16;;;;;;;;;;;;;;;19.46;56.89;98732.94;5041274;28;19925;-77
2023/04/24 11:39:41;;;;;;;;;;;;;;;19.55;57.19;98727.09;5053953;28;20317;-76
2023/04/24 11:42:07;;;;;;;;;;;;;;;19.64;57.75;98722.25;5059750;28;19931;-78
2023/04/24 11:44:38;;;;;;;;;;;;;;;19.73;58.02;98707.56;5053068;28;19925;-77
2023/04/24 11:47:04;;;;;;;;;;;;;;;19.88;52.88;98710.69;5054446;28;19954;-79
2023/04/24 11:49:30;;;;;;;;;;;;;;;19.96;54.15;98706.91;5058293;28;19928;-76
2023/04/24 11:51:56;;;;;;;;;;;;;;;20.11;53.47;98709.19;5058996;28;19924;-77
2023/04/24 11:54:21;;;;;;;;;;;;;;;20.24;53.19;98703.69;5045895;28;19924;-77
2023/04/24 11:56:47;;;;;;;;;;;;;;;20.29;53.54;98701.97;5051282;28;19921;-77
2023/04/24 11:59:22;;;;;;;;;;;;;;;20.40;53.75;98703.09;5059188;28;20435;-77
2023/04/24 12:01:50;;;;;;;;;;;;;;;20.55;53.74;98700.00;5025024;28;19926;-78
2023/04/24 12:04:16;;;;;;;;;;;;;;;20.65;52.02;98695.72;5063567;28;19924;-79
2023/04/24 12:07:00;;;;;;;;;;;;;;;20.72;52.20;98691.09;5085319;23;19932;-77
2023/04/24 12:09:26;;;;;;;;;;;;;;;20.85;50.19;98685.50;5076076;28;19993;-77
2023/04/24 12:11:58;;;;;;;;;;;;;;;21.02;50.90;98683.00;5060164;28;19936;-78
2023/04/24 12:14:23;;;;;;;;;;;;;;;21.16;48.96;98680.94;5076547;28;19981;-75
2023/04/24 12:16:52;;;;;;;;;;;;;;;21.38;49.44;98687.38;5079710;28;20335;-77
2023/04/24 12:19:18;;;;;;;;;;;;;;;21.53;48.81;98677.00;5075633;28;19925;-76
2023/04/24 12:21:58;;;;;;;;;;;;;;;21.77;47.29;98685.03;5062859;28;19928;-77
2023/04/24 12:24:23;;;;;;;;;;;;;;;21.90;47.26;98682.09;5078024;28;20015;-77
2023/04/24 12:26:49;;;;;;;;;;;;;;;22.07;46.83;98676.81;5080733;28;20354;-76
2023/04/24 12:29:19;;;;;;;;;;;;;;;22.25;44.21;98674.78;5082053;28;20134;-75
2023/04/24 12:31:45;;;;;;;;;;;;;;;22.33;41.36;98674.38;5077894;28;20015;-76
2023/04/24 12:34:20;;;;;;;;;;;;;;;22.42;41.60;98675.66;5082470;28;19956;-77
2023/04/24 12:36:46;;;;;;;;;;;;;;;22.38;40.11;98669.09;5076016;28;19955;-79
2023/04/24 12:39:16;;;;;;;;;;;;;;;22.38;40.38;98666.41;5082128;28;19920;-81